sensor_id;sensor_type;location;lat;lon;timestamp;pressure;altitude;pressure_sealevel;temperature;humidity
49194;BME280;35029;50.804;12.866;2022-12-20T00:02:10;98197.72;;;-0.03;100.00
49194;BME280;35029;50.804;12.866;2022-12-20T00:04:36;98207.94;;;0.00;100.00
49194;BME280;35029;50.804;12.866;2022-12-20T00:07:02;98201.03;;;-0.01;100.00
49194;BME280;35029;50.804;12.866;2022-12-20T00:09:27;98205.41;;;-0.02;100.00
49194;BME280;35029;50.804;12.866;2022-12-20T00:11:53;98201.25;;;-0.04;100.00
49194;BME280;35029;50.804;12.866;2022-12-20T00:14:20;98197.00;;;-0.05;100.00
49194;BME280;35029;50.804;12.866;2022-12-20T00:16:45;98192.63;;;-0.05;100.00
49194;BME280;35029;50.804;12.866;2022-12-20T00:19:12;98181.13;;;-0.02;100.00
49194;BME280;35029;50.804;12.866;2022-12-20T00:21:37;98186.47;;;-0.04;100.00
49194;BME280;35029;50.804;12.866;2022-12-20T00:24:04;98169.84;;;-0.14;100.00
49194;BME280;35029;50.804;12.866;2022-12-20T00:26:32;98183.13;;;-0.06;100.00
49194;BME280;35029;50.804;12.866;2022-12-20T00:28:59;98176.38;;;-0.08;100.00
49194;BME280;35029;50.804;12.866;2022-12-20T00:31:28;98173.88;;;-0.10;100.00
49194;BME280;35029;50.804;12.866;2022-12-20T00:33:54;98154.94;;;-0.12;100.00
49194;BME280;35029;50.804;12.866;2022-12-20T00:36:21;98147.94;;;-0.11;100.00
49194;BME280;35029;50.804;12.866;2022-12-20T00:38:48;98137.41;;;-0.21;100.00
49194;BME280;35029;50.804;12.866;2022-12-20T00:41:20;98160.97;;;-0.11;100.00
49194;BME280;35029;50.804;12.866;2022-12-20T00:43:46;98164.53;;;-0.12;100.00
49194;BME280;35029;50.804;12.866;2022-12-20T00:46:13;98174.13;;;-0.13;100.00
49194;BME280;35029;50.804;12.866;2022-12-20T00:48:38;98160.28;;;-0.13;100.00
49194;BME280;35029;50.804;12.866;2022-12-20T00:51:19;98175.91;;;-0.13;100.00
49194;BME280;35029;50.804;12.866;2022-12-20T00:53:45;98158.84;;;-0.18;100.00
49194;BME280;35029;50.804;12.866;2022-12-20T00:56:11;98170.34;;;-0.09;100.00
49194;BME280;35029;50.804;12.866;2022-12-20T00:58:39;98172.50;;;-0.03;100.00
49194;BME280;35029;50.804;12.866;2022-12-20T01:01:18;98173.19;;;-0.01;100.00
49194;BME280;35029;50.804;12.866;2022-12-20T01:03:47;98161.47;;;0.05;100.00
49194;BME280;35029;50.804;12.866;2022-12-20T01:06:12;98160.28;;;0.09;100.00
49194;BME280;35029;50.804;12.866;2022-12-20T01:08:38;98143.81;;;-0.03;100.00
49194;BME280;35029;50.804;12.866;2022-12-20T01:13:38;98155.28;;;0.17;100.00
49194;BME280;35029;50.804;12.866;2022-12-20T01:16:32;98162.66;;;0.24;100.00
49194;BME280;35029;50.804;12.866;2022-12-20T01:18:59;98133.25;;;0.10;100.00
49194;BME280;35029;50.804;12.866;2022-12-20T01:21:26;98163.25;;;0.27;100.00
49194;BME280;35029;50.804;12.866;2022-12-20T01:23:54;98162.75;;;0.33;100.00
49194;BME280;35029;50.804;12.866;2022-12-20T01:26:22;98162.84;;;0.43;100.00
49194;BME280;35029;50.804;12.866;2022-12-20T01:28:52;98159.78;;;0.49;100.00
49194;BME280;35029;50.804;12.866;2022-12-20T01:31:21;98155.50;;;0.48;100.00
49194;BME280;35029;50.804;12.866;2022-12-20T01:33:48;98146.03;;;0.36;100.00
49194;BME280;35029;50.804;12.866;2022-12-20T01:36:35;98159.19;;;0.46;100.00
49194;BME280;35029;50.804;12.866;2022-12-20T01:39:08;98146.88;;;0.48;100.00
49194;BME280;35029;50.804;12.866;2022-12-20T01:41:35;98144.81;;;0.52;100.00
49194;BME280;35029;50.804;12.866;2022-12-20T01:44:50;98150.75;;;0.54;100.00
49194;BME280;35029;50.804;12.866;2022-12-20T01:46:49;98159.63;;;0.62;100.00
49194;BME280;35029;50.804;12.866;2022-12-20T01:49:23;98159.38;;;0.65;100.00
49194;BME280;35029;50.804;12.866;2022-12-20T01:51:55;98162.44;;;0.71;100.00
49194;BME280;35029;50.804;12.866;2022-12-20T01:54:32;98159.63;;;0.74;100.00
49194;BME280;35029;50.804;12.866;2022-12-20T01:57:05;98157.31;;;0.80;100.00
49194;BME280;35029;50.804;12.866;2022-12-20T01:59:35;98156.38;;;0.81;100.00
49194;BME280;35029;50.804;12.866;2022-12-20T02:02:05;98165.88;;;0.82;100.00
49194;BME280;35029;50.804;12.866;2022-12-20T02:04:32;98162.66;;;0.79;100.00
49194;BME280;35029;50.804;12.866;2022-12-20T02:06:59;98162.09;;;0.75;100.00
49194;BME280;35029;50.804;12.866;2022-12-20T02:09:26;98151.88;;;0.72;100.00
49194;BME280;35029;50.804;12.866;2022-12-20T02:12:09;98150.94;;;0.73;100.00
49194;BME280;35029;50.804;12.866;2022-12-20T02:31:46;98104.91;;;0.72;100.00
49194;BME280;35029;50.804;12.866;2022-12-20T02:34:15;98135.81;;;0.88;100.00
49194;BME280;35029;50.804;12.866;2022-12-20T02:36:41;98127.19;;;0.88;100.00
49194;BME280;35029;50.804;12.866;2022-12-20T02:39:11;98131.44;;;0.89;100.00
49194;BME280;35029;50.804;12.866;2022-12-20T02:41:42;98135.69;;;0.90;100.00
49194;BME280;35029;50.804;12.866;2022-12-20T02:44:13;98126.31;;;0.87;100.00
49194;BME280;35029;50.804;12.866;2022-12-20T02:47:01;98133.09;;;0.90;100.00
49194;BME280;35029;50.804;12.866;2022-12-20T02:49:31;98129.16;;;0.95;100.00
49194;BME280;35029;50.804;12.866;2022-12-20T02:52:00;98124.50;;;0.99;100.00
49194;BME280;35029;50.804;12.866;2022-12-20T02:54:27;98126.19;;;1.00;100.00
49194;BME280;35029;50.804;12.866;2022-12-20T02:56:56;98124.25;;;1.02;100.00
49194;BME280;35029;50.804;12.866;2022-12-20T02:59:28;98121.16;;;1.08;100.00
49194;BME280;35029;50.804;12.866;2022-12-20T03:01:55;98124.28;;;1.23;100.00
49194;BME280;35029;50.804;12.866;2022-12-20T03:04:24;98112.69;;;1.37;100.00
49194;BME280;35029;50.804;12.866;2022-12-20T03:06:55;98077.97;;;1.25;100.00
49194;BME280;35029;50.804;12.866;2022-12-20T03:09:21;98110.09;;;1.58;100.00
49194;BME280;35029;50.804;12.866;2022-12-20T03:11:48;98107.56;;;1.78;100.00
49194;BME280;35029;50.804;12.866;2022-12-20T03:14:13;98103.94;;;2.10;100.00
49194;BME280;35029;50.804;12.866;2022-12-20T03:16:39;98068.59;;;2.15;100.00
49194;BME280;35029;50.804;12.866;2022-12-20T03:19:06;98103.78;;;2.52;100.00
49194;BME280;35029;50.804;12.866;2022-12-20T03:21:31;98099.25;;;2.64;100.00
49194;BME280;35029;50.804;12.866;2022-12-20T03:23:57;98104.22;;;2.77;100.00
49194;BME280;35029;50.804;12.866;2022-12-20T03:26:22;98112.22;;;2.85;100.00
49194;BME280;35029;50.804;12.866;2022-12-20T03:28:53;98104.09;;;2.88;100.00
49194;BME280;35029;50.804;12.866;2022-12-20T03:31:21;98109.06;;;2.91;100.00
49194;BME280;35029;50.804;12.866;2022-12-20T03:33:52;98093.63;;;2.98;100.00
49194;BME280;35029;50.804;12.866;2022-12-20T03:36:17;98103.16;;;2.99;100.00
49194;BME280;35029;50.804;12.866;2022-12-20T03:38:53;98098.56;;;3.01;100.00
49194;BME280;35029;50.804;12.866;2022-12-20T03:41:20;98103.00;;;3.10;100.00
49194;BME280;35029;50.804;12.866;2022-12-20T03:43:48;98089.34;;;3.16;100.00
49194;BME280;35029;50.804;12.866;2022-12-20T03:46:14;98095.81;;;3.22;100.00
49194;BME280;35029;50.804;12.866;2022-12-20T03:48:40;98094.84;;;3.13;100.00
49194;BME280;35029;50.804;12.866;2022-12-20T03:51:08;98090.84;;;3.09;100.00
49194;BME280;35029;50.804;12.866;2022-12-20T03:53:34;98074.59;;;2.96;100.00
49194;BME280;35029;50.804;12.866;2022-12-20T03:56:01;98068.13;;;2.90;100.00
49194;BME280;35029;50.804;12.866;2022-12-20T03:58:27;98086.44;;;3.00;100.00
49194;BME280;35029;50.804;12.866;2022-12-20T04:00:53;98070.06;;;2.88;100.00
49194;BME280;35029;50.804;12.866;2022-12-20T04:03:48;98079.81;;;2.96;100.00
49194;BME280;35029;50.804;12.866;2022-12-20T04:06:14;98084.41;;;2.94;100.00
49194;BME280;35029;50.804;12.866;2022-12-20T04:08:40;98080.81;;;2.95;100.00
49194;BME280;35029;50.804;12.866;2022-12-20T04:11:06;98084.25;;;2.95;100.00
49194;BME280;35029;50.804;12.866;2022-12-20T04:13:53;98083.69;;;2.92;100.00
49194;BME280;35029;50.804;12.866;2022-12-20T04:16:24;98073.91;;;2.94;100.00
49194;BME280;35029;50.804;12.866;2022-12-20T04:18:52;98070.75;;;2.90;100.00
49194;BME280;35029;50.804;12.866;2022-12-20T04:21:28;98074.34;;;2.99;100.00
49194;BME280;35029;50.804;12.866;2022-12-20T04:23:57;98060.53;;;2.97;100.00
49194;BME280;35029;50.804;12.866;2022-12-20T04:26:28;98075.97;;;3.10;100.00
49194;BME280;35029;50.804;12.866;2022-12-20T04:28:55;98079.53;;;3.18;100.00
49194;BME280;35029;50.804;12.866;2022-12-20T04:31:20;98073.88;;;3.33;100.00
49194;BME280;35029;50.804;12.866;2022-12-20T04:33:47;98070.53;;;3.41;100.00
49194;BME280;35029;50.804;12.866;2022-12-20T04:36:13;98071.19;;;3.52;100.00
49194;BME280;35029;50.804;12.866;2022-12-20T04:38:39;98047.72;;;3.61;100.00
49194;BME280;35029;50.804;12.866;2022-12-20T04:41:06;98048.63;;;3.69;100.00
49194;BME280;35029;50.804;12.866;2022-12-20T04:43:42;98051.50;;;3.76;100.00
49194;BME280;35029;50.804;12.866;2022-12-20T04:46:08;98041.00;;;3.86;100.00
49194;BME280;35029;50.804;12.866;2022-12-20T04:48:34;98053.53;;;3.92;100.00
49194;BME280;35029;50.804;12.866;2022-12-20T04:51:00;98050.59;;;3.95;100.00
49194;BME280;35029;50.804;12.866;2022-12-20T04:53:26;98043.56;;;3.96;100.00
49194;BME280;35029;50.804;12.866;2022-12-20T04:56:10;98036.09;;;4.01;100.00
49194;BME280;35029;50.804;12.866;2022-12-20T04:58:36;98030.56;;;4.04;100.00
49194;BME280;35029;50.804;12.866;2022-12-20T05:01:04;98034.22;;;4.11;100.00
49194;BME280;35029;50.804;12.866;2022-12-20T05:03:39;98023.00;;;4.01;100.00
49194;BME280;35029;50.804;12.866;2022-12-20T05:06:07;98025.69;;;4.09;100.00
49194;BME280;35029;50.804;12.866;2022-12-20T05:08:33;98023.06;;;4.09;100.00
49194;BME280;35029;50.804;12.866;2022-12-20T05:10:59;98035.44;;;4.17;100.00
49194;BME280;35029;50.804;12.866;2022-12-20T05:13:25;98027.16;;;4.21;100.00
49194;BME280;35029;50.804;12.866;2022-12-20T05:15:53;98024.78;;;4.18;100.00
49194;BME280;35029;50.804;12.866;2022-12-20T05:18:24;98025.88;;;4.26;100.00
49194;BME280;35029;50.804;12.866;2022-12-20T05:21:01;98031.28;;;4.24;100.00
49194;BME280;35029;50.804;12.866;2022-12-20T05:23:50;98027.63;;;4.07;100.00
49194;BME280;35029;50.804;12.866;2022-12-20T05:27:01;98016.97;;;3.63;100.00
49194;BME280;35029;50.804;12.866;2022-12-20T05:29:28;98027.78;;;3.40;100.00
49194;BME280;35029;50.804;12.866;2022-12-20T05:31:54;98025.34;;;3.19;100.00
49194;BME280;35029;50.804;12.866;2022-12-20T05:34:20;98019.31;;;3.09;100.00
49194;BME280;35029;50.804;12.866;2022-12-20T05:36:50;98008.72;;;3.00;100.00
49194;BME280;35029;50.804;12.866;2022-12-20T05:39:17;98012.88;;;2.93;100.00
49194;BME280;35029;50.804;12.866;2022-12-20T05:41:44;98012.59;;;2.86;100.00
49194;BME280;35029;50.804;12.866;2022-12-20T05:44:10;98010.81;;;2.77;100.00
49194;BME280;35029;50.804;12.866;2022-12-20T05:46:39;98013.59;;;2.66;100.00
49194;BME280;35029;50.804;12.866;2022-12-20T05:49:09;98013.69;;;2.64;100.00
49194;BME280;35029;50.804;12.866;2022-12-20T05:51:35;98018.41;;;2.70;100.00
49194;BME280;35029;50.804;12.866;2022-12-20T05:54:11;98013.72;;;2.74;100.00
49194;BME280;35029;50.804;12.866;2022-12-20T05:56:57;98014.25;;;2.68;100.00
49194;BME280;35029;50.804;12.866;2022-12-20T05:59:31;98010.56;;;2.61;100.00
49194;BME280;35029;50.804;12.866;2022-12-20T06:01:57;98022.50;;;2.53;100.00
49194;BME280;35029;50.804;12.866;2022-12-20T06:04:23;98027.59;;;2.45;100.00
49194;BME280;35029;50.804;12.866;2022-12-20T06:06:50;98030.50;;;2.42;100.00
49194;BME280;35029;50.804;12.866;2022-12-20T06:09:18;98023.22;;;2.46;100.00
49194;BME280;35029;50.804;12.866;2022-12-20T06:11:51;97989.06;;;2.38;100.00
49194;BME280;35029;50.804;12.866;2022-12-20T06:14:16;97993.34;;;2.48;100.00
49194;BME280;35029;50.804;12.866;2022-12-20T06:16:46;98012.31;;;2.90;100.00
49194;BME280;35029;50.804;12.866;2022-12-20T06:19:13;98011.47;;;2.99;100.00
49194;BME280;35029;50.804;12.866;2022-12-20T06:21:39;97999.63;;;2.95;100.00
49194;BME280;35029;50.804;12.866;2022-12-20T06:24:08;98015.88;;;3.08;100.00
49194;BME280;35029;50.804;12.866;2022-12-20T06:26:36;98007.75;;;3.01;100.00
49194;BME280;35029;50.804;12.866;2022-12-20T06:29:05;98022.75;;;3.09;100.00
49194;BME280;35029;50.804;12.866;2022-12-20T06:31:41;98014.22;;;3.07;100.00
49194;BME280;35029;50.804;12.866;2022-12-20T06:34:07;98013.25;;;3.18;100.00
49194;BME280;35029;50.804;12.866;2022-12-20T06:36:37;98015.81;;;3.28;100.00
49194;BME280;35029;50.804;12.866;2022-12-20T06:39:06;98018.59;;;3.26;100.00
49194;BME280;35029;50.804;12.866;2022-12-20T06:41:35;98018.88;;;3.13;100.00
49194;BME280;35029;50.804;12.866;2022-12-20T06:44:02;98025.78;;;3.14;100.00
49194;BME280;35029;50.804;12.866;2022-12-20T06:46:28;98018.50;;;2.98;100.00
49194;BME280;35029;50.804;12.866;2022-12-20T06:48:56;97998.53;;;2.87;100.00
49194;BME280;35029;50.804;12.866;2022-12-20T06:51:22;97986.69;;;2.83;100.00
49194;BME280;35029;50.804;12.866;2022-12-20T06:53:48;98002.38;;;2.83;100.00
49194;BME280;35029;50.804;12.866;2022-12-20T06:56:14;98002.25;;;2.75;100.00
49194;BME280;35029;50.804;12.866;2022-12-20T06:58:40;97992.78;;;2.74;100.00
49194;BME280;35029;50.804;12.866;2022-12-20T07:01:06;98007.25;;;2.78;100.00
49194;BME280;35029;50.804;12.866;2022-12-20T07:03:31;97997.88;;;2.76;100.00
49194;BME280;35029;50.804;12.866;2022-12-20T07:05:58;97976.94;;;2.56;100.00
49194;BME280;35029;50.804;12.866;2022-12-20T07:08:25;97998.28;;;2.71;100.00
49194;BME280;35029;50.804;12.866;2022-12-20T07:10:50;97997.03;;;2.75;100.00
49194;BME280;35029;50.804;12.866;2022-12-20T07:13:19;98001.16;;;2.78;100.00
49194;BME280;35029;50.804;12.866;2022-12-20T07:15:45;98009.56;;;2.81;100.00
49194;BME280;35029;50.804;12.866;2022-12-20T07:18:12;98008.47;;;2.74;100.00
49194;BME280;35029;50.804;12.866;2022-12-20T07:20:40;98005.16;;;2.72;100.00
49194;BME280;35029;50.804;12.866;2022-12-20T07:23:05;97975.94;;;2.67;100.00
49194;BME280;35029;50.804;12.866;2022-12-20T07:25:31;97979.41;;;2.77;100.00
49194;BME280;35029;50.804;12.866;2022-12-20T07:27:57;97990.16;;;2.74;100.00
49194;BME280;35029;50.804;12.866;2022-12-20T07:30:22;97981.75;;;2.70;100.00
49194;BME280;35029;50.804;12.866;2022-12-20T07:32:48;97992.22;;;2.70;100.00
49194;BME280;35029;50.804;12.866;2022-12-20T07:35:14;97959.16;;;2.60;100.00
49194;BME280;35029;50.804;12.866;2022-12-20T07:37:40;97979.28;;;2.69;100.00
49194;BME280;35029;50.804;12.866;2022-12-20T07:40:07;97989.16;;;2.75;100.00
49194;BME280;35029;50.804;12.866;2022-12-20T07:42:33;97990.84;;;2.76;100.00
49194;BME280;35029;50.804;12.866;2022-12-20T07:44:58;97989.03;;;2.77;100.00
49194;BME280;35029;50.804;12.866;2022-12-20T07:47:25;97978.69;;;2.75;100.00
49194;BME280;35029;50.804;12.866;2022-12-20T07:49:50;97986.84;;;2.72;100.00
49194;BME280;35029;50.804;12.866;2022-12-20T07:52:18;97976.66;;;2.69;100.00
49194;BME280;35029;50.804;12.866;2022-12-20T07:54:49;97980.22;;;2.78;100.00
49194;BME280;35029;50.804;12.866;2022-12-20T07:57:28;97971.53;;;2.77;100.00
49194;BME280;35029;50.804;12.866;2022-12-20T07:59:59;97973.31;;;2.77;100.00
49194;BME280;35029;50.804;12.866;2022-12-20T08:02:31;97981.72;;;2.80;100.00
49194;BME280;35029;50.804;12.866;2022-12-20T08:05:00;97979.81;;;2.82;100.00
49194;BME280;35029;50.804;12.866;2022-12-20T08:07:28;97979.22;;;2.88;100.00
49194;BME280;35029;50.804;12.866;2022-12-20T08:09:54;97975.38;;;2.93;100.00
49194;BME280;35029;50.804;12.866;2022-12-20T08:12:20;97974.13;;;2.97;100.00
49194;BME280;35029;50.804;12.866;2022-12-20T08:14:47;97970.41;;;2.99;100.00
49194;BME280;35029;50.804;12.866;2022-12-20T08:17:12;97981.00;;;3.08;100.00
49194;BME280;35029;50.804;12.866;2022-12-20T08:19:38;97975.47;;;3.11;100.00
49194;BME280;35029;50.804;12.866;2022-12-20T08:22:04;97981.94;;;3.16;100.00
49194;BME280;35029;50.804;12.866;2022-12-20T08:24:31;97987.72;;;3.20;100.00
49194;BME280;35029;50.804;12.866;2022-12-20T08:26:57;97972.53;;;3.24;100.00
49194;BME280;35029;50.804;12.866;2022-12-20T08:29:23;97987.97;;;3.27;100.00
49194;BME280;35029;50.804;12.866;2022-12-20T08:31:48;97978.84;;;3.31;100.00
49194;BME280;35029;50.804;12.866;2022-12-20T08:34:14;97979.69;;;3.31;100.00
49194;BME280;35029;50.804;12.866;2022-12-20T08:36:40;97977.34;;;3.28;100.00
49194;BME280;35029;50.804;12.866;2022-12-20T08:39:06;97975.16;;;3.24;100.00
49194;BME280;35029;50.804;12.866;2022-12-20T08:41:35;97975.00;;;3.25;100.00
49194;BME280;35029;50.804;12.866;2022-12-20T08:44:04;97983.94;;;3.32;100.00
49194;BME280;35029;50.804;12.866;2022-12-20T08:46:30;97994.00;;;3.37;100.00
49194;BME280;35029;50.804;12.866;2022-12-20T08:48:55;97995.63;;;3.38;100.00
49194;BME280;35029;50.804;12.866;2022-12-20T08:51:21;97990.28;;;3.40;100.00
49194;BME280;35029;50.804;12.866;2022-12-20T08:53:48;97977.19;;;3.40;100.00
49194;BME280;35029;50.804;12.866;2022-12-20T08:56:16;97979.66;;;3.41;100.00
49194;BME280;35029;50.804;12.866;2022-12-20T08:58:43;97965.84;;;3.39;100.00
49194;BME280;35029;50.804;12.866;2022-12-20T09:01:14;97979.47;;;3.52;100.00
49194;BME280;35029;50.804;12.866;2022-12-20T09:03:41;97977.28;;;3.48;100.00
49194;BME280;35029;50.804;12.866;2022-12-20T09:06:09;97979.91;;;3.38;100.00
49194;BME280;35029;50.804;12.866;2022-12-20T09:08:37;97977.19;;;3.30;100.00
49194;BME280;35029;50.804;12.866;2022-12-20T09:11:14;97977.19;;;3.30;100.00
49194;BME280;35029;50.804;12.866;2022-12-20T09:13:42;97962.47;;;3.29;100.00
49194;BME280;35029;50.804;12.866;2022-12-20T09:16:08;97960.66;;;3.29;100.00
49194;BME280;35029;50.804;12.866;2022-12-20T09:18:34;97968.06;;;3.34;100.00
49194;BME280;35029;50.804;12.866;2022-12-20T09:21:01;97962.28;;;3.40;100.00
49194;BME280;35029;50.804;12.866;2022-12-20T09:23:28;97966.41;;;3.43;100.00
49194;BME280;35029;50.804;12.866;2022-12-20T09:25:54;97969.16;;;3.41;100.00
49194;BME280;35029;50.804;12.866;2022-12-20T09:28:20;97975.66;;;3.37;100.00
49194;BME280;35029;50.804;12.866;2022-12-20T09:30:47;97977.19;;;3.40;100.00
49194;BME280;35029;50.804;12.866;2022-12-20T09:33:12;97975.22;;;3.42;100.00
49194;BME280;35029;50.804;12.866;2022-12-20T09:35:46;97972.75;;;3.40;100.00
49194;BME280;35029;50.804;12.866;2022-12-20T09:38:13;97984.69;;;3.52;100.00
49194;BME280;35029;50.804;12.866;2022-12-20T09:40:44;97980.81;;;3.57;100.00
49194;BME280;35029;50.804;12.866;2022-12-20T09:43:12;97985.75;;;3.60;100.00
49194;BME280;35029;50.804;12.866;2022-12-20T09:45:39;97982.03;;;3.62;100.00
49194;BME280;35029;50.804;12.866;2022-12-20T09:48:09;97985.50;;;3.63;100.00
49194;BME280;35029;50.804;12.866;2022-12-20T09:54:00;97977.03;;;3.69;100.00
49194;BME280;35029;50.804;12.866;2022-12-20T09:56:43;97971.50;;;3.72;100.00
49194;BME280;35029;50.804;12.866;2022-12-20T09:59:14;97965.44;;;3.71;100.00
49194;BME280;35029;50.804;12.866;2022-12-20T10:01:46;97972.84;;;3.76;100.00
49194;BME280;35029;50.804;12.866;2022-12-20T10:04:25;97962.97;;;3.70;100.00
49194;BME280;35029;50.804;12.866;2022-12-20T10:12:43;97965.28;;;3.73;100.00
49194;BME280;35029;50.804;12.866;2022-12-20T10:20:22;97965.34;;;3.63;100.00
49194;BME280;35029;50.804;12.866;2022-12-20T10:22:58;97966.75;;;3.58;100.00
49194;BME280;35029;50.804;12.866;2022-12-20T10:25:30;97945.53;;;3.51;100.00
49194;BME280;35029;50.804;12.866;2022-12-20T10:27:57;97948.97;;;3.51;100.00
49194;BME280;35029;50.804;12.866;2022-12-20T10:30:27;97937.22;;;3.55;100.00
49194;BME280;35029;50.804;12.866;2022-12-20T10:32:55;97945.09;;;3.55;100.00
49194;BME280;35029;50.804;12.866;2022-12-20T10:38:03;97938.06;;;3.56;100.00
49194;BME280;35029;50.804;12.866;2022-12-20T10:40:35;97932.22;;;3.62;100.00
49194;BME280;35029;50.804;12.866;2022-12-20T10:43:02;97930.53;;;3.71;100.00
49194;BME280;35029;50.804;12.866;2022-12-20T10:45:35;97934.59;;;3.83;100.00
49194;BME280;35029;50.804;12.866;2022-12-20T10:48:06;97922.00;;;3.87;100.00
49194;BME280;35029;50.804;12.866;2022-12-20T10:51:01;97908.22;;;4.03;100.00
49194;BME280;35029;50.804;12.866;2022-12-20T10:53:30;97900.81;;;4.16;100.00
49194;BME280;35029;50.804;12.866;2022-12-20T10:56:22;97895.31;;;4.28;100.00
49194;BME280;35029;50.804;12.866;2022-12-20T10:58:54;97889.53;;;4.42;100.00
49194;BME280;35029;50.804;12.866;2022-12-20T11:01:21;97876.16;;;4.53;100.00
49194;BME280;35029;50.804;12.866;2022-12-20T11:06:44;97874.94;;;4.66;100.00
49194;BME280;35029;50.804;12.866;2022-12-20T11:12:14;97854.69;;;4.84;100.00
49194;BME280;35029;50.804;12.866;2022-12-20T11:14:42;97854.25;;;4.97;100.00
49194;BME280;35029;50.804;12.866;2022-12-20T11:17:29;97854.50;;;5.12;100.00
49194;BME280;35029;50.804;12.866;2022-12-20T11:23:05;97857.91;;;5.47;100.00
49194;BME280;35029;50.804;12.866;2022-12-20T11:39:59;97843.50;;;5.68;100.00
49194;BME280;35029;50.804;12.866;2022-12-20T11:45:27;97826.41;;;5.72;100.00
49194;BME280;35029;50.804;12.866;2022-12-20T11:48:05;97830.84;;;5.80;100.00
49194;BME280;35029;50.804;12.866;2022-12-20T11:55:53;97806.69;;;5.84;100.00
49194;BME280;35029;50.804;12.866;2022-12-20T11:58:27;97805.19;;;5.90;100.00
49194;BME280;35029;50.804;12.866;2022-12-20T12:01:03;97810.00;;;5.95;100.00
49194;BME280;35029;50.804;12.866;2022-12-20T12:03:36;97802.41;;;5.91;100.00
49194;BME280;35029;50.804;12.866;2022-12-20T12:06:20;97808.72;;;5.99;100.00
49194;BME280;35029;50.804;12.866;2022-12-20T12:08:54;97791.09;;;5.99;100.00
49194;BME280;35029;50.804;12.866;2022-12-20T12:11:37;97790.44;;;6.05;100.00
49194;BME280;35029;50.804;12.866;2022-12-20T12:14:05;97782.69;;;6.12;100.00
49194;BME280;35029;50.804;12.866;2022-12-20T12:16:37;97773.50;;;6.16;100.00
49194;BME280;35029;50.804;12.866;2022-12-20T12:19:08;97764.59;;;6.17;100.00
49194;BME280;35029;50.804;12.866;2022-12-20T12:21:58;97760.16;;;6.18;100.00
49194;BME280;35029;50.804;12.866;2022-12-20T12:24:37;97764.13;;;6.22;100.00
49194;BME280;35029;50.804;12.866;2022-12-20T12:27:23;97769.03;;;6.33;100.00
49194;BME280;35029;50.804;12.866;2022-12-20T12:29:50;97771.78;;;6.48;100.00
49194;BME280;35029;50.804;12.866;2022-12-20T12:46:57;97765.81;;;6.71;100.00
49194;BME280;35029;50.804;12.866;2022-12-20T12:49:27;97768.44;;;6.71;100.00
49194;BME280;35029;50.804;12.866;2022-12-20T12:52:04;97763.66;;;6.66;100.00
49194;BME280;35029;50.804;12.866;2022-12-20T12:54:36;97765.50;;;6.66;100.00
49194;BME280;35029;50.804;12.866;2022-12-20T12:57:15;97761.19;;;6.65;100.00
49194;BME280;35029;50.804;12.866;2022-12-20T12:59:46;97749.53;;;6.59;100.00
49194;BME280;35029;50.804;12.866;2022-12-20T13:09:59;97737.66;;;6.63;100.00
49194;BME280;35029;50.804;12.866;2022-12-20T13:20:42;97735.38;;;6.60;100.00
49194;BME280;35029;50.804;12.866;2022-12-20T13:25:51;97721.19;;;6.61;100.00
49194;BME280;35029;50.804;12.866;2022-12-20T13:33:42;97713.13;;;6.71;98.73
49194;BME280;35029;50.804;12.866;2022-12-20T13:42:06;97722.81;;;6.70;99.21
49194;BME280;35029;50.804;12.866;2022-12-20T13:49:54;97725.78;;;6.75;96.85
49194;BME280;35029;50.804;12.866;2022-12-20T13:52:32;97716.75;;;6.70;97.22
49194;BME280;35029;50.804;12.866;2022-12-20T13:55:04;97718.25;;;6.64;98.35
49194;BME280;35029;50.804;12.866;2022-12-20T13:57:40;97710.53;;;6.63;98.41
49194;BME280;35029;50.804;12.866;2022-12-20T14:00:15;97723.38;;;6.57;99.31
49194;BME280;35029;50.804;12.866;2022-12-20T14:02:42;97720.41;;;6.52;100.00
49194;BME280;35029;50.804;12.866;2022-12-20T14:05:32;97720.78;;;6.49;100.00
49194;BME280;35029;50.804;12.866;2022-12-20T14:08:16;97721.44;;;6.43;99.39
49194;BME280;35029;50.804;12.866;2022-12-20T14:10:43;97725.53;;;6.46;99.61
49194;BME280;35029;50.804;12.866;2022-12-20T14:13:25;97724.41;;;6.40;99.38
49194;BME280;35029;50.804;12.866;2022-12-20T14:15:52;97717.50;;;6.39;99.64
49194;BME280;35029;50.804;12.866;2022-12-20T14:18:19;97702.41;;;6.24;100.00
49194;BME280;35029;50.804;12.866;2022-12-20T14:20:48;97692.91;;;6.07;100.00
49194;BME280;35029;50.804;12.866;2022-12-20T14:23:32;97703.44;;;5.90;100.00
49194;BME280;35029;50.804;12.866;2022-12-20T14:26:01;97701.63;;;5.66;100.00
49194;BME280;35029;50.804;12.866;2022-12-20T14:28:37;97687.66;;;5.49;100.00
49194;BME280;35029;50.804;12.866;2022-12-20T14:31:05;97699.97;;;5.32;100.00
49194;BME280;35029;50.804;12.866;2022-12-20T14:33:36;97700.44;;;5.19;100.00
49194;BME280;35029;50.804;12.866;2022-12-20T14:38:49;97696.28;;;4.92;100.00
49194;BME280;35029;50.804;12.866;2022-12-20T14:41:37;97693.00;;;4.82;100.00
49194;BME280;35029;50.804;12.866;2022-12-20T14:46:32;97681.28;;;4.60;100.00
49194;BME280;35029;50.804;12.866;2022-12-20T14:51:45;97674.22;;;4.60;100.00
49194;BME280;35029;50.804;12.866;2022-12-20T14:54:26;97683.91;;;4.60;100.00
49194;BME280;35029;50.804;12.866;2022-12-20T14:56:53;97701.25;;;4.52;100.00
49194;BME280;35029;50.804;12.866;2022-12-20T14:59:25;97695.00;;;4.45;100.00
49194;BME280;35029;50.804;12.866;2022-12-20T15:01:51;97691.72;;;4.43;100.00
49194;BME280;35029;50.804;12.866;2022-12-20T15:04:32;97695.31;;;4.42;100.00
49194;BME280;35029;50.804;12.866;2022-12-20T15:06:59;97690.69;;;4.36;100.00
49194;BME280;35029;50.804;12.866;2022-12-20T15:09:26;97694.94;;;4.37;100.00
49194;BME280;35029;50.804;12.866;2022-12-20T15:11:52;97700.19;;;4.37;100.00